Latest Coastal Weather Observations for Cape Leeuwin

IDW60701

Issued at 11:42 am WST Friday 24 November 2017 (issued every 10 minutes, with the page automatically refreshed every 10 minutes)

About coastal observations | Map of coastal stations | Coastal observations for WA | Marine services | Other Formats
Station Details ID: 009518 Name: CAPE LEEUWIN Lat: -34.37 Lon: 115.14 Height: 13.0 m
Data from the previous 72 hours. | See also: Recent months at Cape Leeuwin
Date/Time
WST
Temp
°C
Wind Pressure Rain since
9am
mm
Weather Cloud Vis
km
Sea
Height
m
Swell
Dir  Spd
kts
Gust
kts
hPa Trend Height
m
Period
s
Dir
24/11:30am 21.0 SSE 16 21 1014.1 - 0.0 - - - - - - -
24/11:00am 21.2 SSE 13 18 1014.1 - 0.0 - - - - - - -
24/10:30am 20.2 SSE 13 17 1014.2 - 0.0 - - - - - - -
24/10:00am 19.5 SSE 13 16 1014.4 - 0.0 - - - - - - -
24/09:30am 19.4 SSE 11 15 1014.4 - 0.0 - - - - - - -
24/09:00am 18.8 SE 11 13 1014.5 - 0.0 - - - - - - -
24/08:30am 18.6 SE 10 13 1014.6 - 0.0 - - - - - - -
24/08:00am 17.7 ESE 12 13 1014.3 - 0.0 - - - - - - -
24/07:30am 17.6 ESE 13 15 1014.3 - 0.0 - - - - - - -
24/07:00am 17.2 ESE 15 17 1014.3 - 0.0 - - - - - - -
24/06:30am 16.7 E 16 18 1014.3 - 0.0 - - - - - - -
24/06:00am 16.2 ESE 16 19 1014.5 - 0.0 - - - - - - -
24/05:30am 16.0 ESE 16 19 1014.7 - 0.0 - - - - - - -
24/05:00am 15.8 ESE 17 19 1014.5 - 0.0 - - - - - - -
24/04:30am 16.0 ESE 17 19 1014.4 - 0.0 - - - - - - -
24/04:00am 16.2 ESE 18 22 1014.2 - 0.0 - - - - - - -
24/03:30am 16.4 ESE 17 20 1014.5 - 0.0 - - - - - - -
24/03:00am 16.7 ESE 17 20 1014.4 - 0.0 - - - - - - -
24/02:30am 16.9 ESE 18 21 1014.5 - 0.0 - - - - - - -
24/02:00am 17.1 ESE 18 22 1014.8 - 0.0 - - - - - - -
24/01:30am 17.2 ESE 17 22 1015.1 - 0.0 - - - - - - -
24/01:00am 17.2 SE 16 21 1015.4 - 0.0 - - - - - - -
24/12:30am 17.1 SE 17 21 1015.5 - 0.0 - - - - - - -
24/12:00am 17.4 ESE 17 21 1015.7 - 0.0 - - - - - - -
 
Date/Time
WST
Temp
°C
Wind Pressure Rain since
9am
mm
Weather Cloud Vis
km
Sea
Height
m
Swell
Dir  Spd
kts
Gust
kts
hPa Trend Height
m
Period
s
Dir
23/11:30pm 17.4 ESE 17 21 1015.9 - 0.0 - - - - - - -
23/11:00pm 17.4 SE 16 20 1016.5 - 0.0 - - - - - - -
23/10:30pm 17.5 SE 18 21 1016.5 - 0.0 - - - - - - -
23/10:00pm 17.6 ESE 18 23 1016.7 - 0.0 - - - - - - -
23/09:30pm 17.6 ESE 19 23 1016.7 - 0.0 - - - - - - -
23/09:00pm 17.7 ESE 18 22 1016.9 - 0.0 - - - - - - -
23/08:30pm 17.8 ESE 17 21 1016.9 - 0.0 - - - - - - -
23/08:00pm 17.8 SE 17 21 1016.8 - 0.0 - - - - - - -
23/07:30pm 17.8 ESE 18 22 1016.7 - 0.0 - - - - - - -
23/07:00pm 18.1 SE 17 21 1016.7 - 0.0 - - - - - - -
23/06:30pm 18.5 SE 17 21 1016.7 - 0.0 - - - - - - -
23/06:00pm 18.9 SE 17 21 1016.5 - 0.0 - - - - - - -
23/05:30pm 19.1 SE 15 20 1016.4 - 0.0 - - - - - - -
23/05:00pm 19.4 SE 15 21 1016.3 - 0.0 - - - - - - -
23/04:30pm 19.8 SE 17 21 1016.3 - 0.0 - - - - - - -
23/04:00pm 19.9 SE 16 20 1016.7 - 0.0 - - - - - - -
23/03:30pm 20.6 SE 15 19 1016.7 - 0.0 - - - - - - -
23/03:00pm 20.7 SE 15 19 1017.0 - 0.0 - - - - - - -
23/02:30pm 20.9 SE 15 19 1017.3 - 0.0 - - - - - - -
23/02:00pm 21.4 SE 15 18 1017.3 - 0.0 - - - - - - -
23/01:30pm 21.1 SE 14 17 1017.6 - 0.0 - - - - - - -
23/01:00pm 20.7 SE 14 17 1017.7 - 0.0 - - - - - - -
23/12:30pm 20.7 SSE 13 17 1018.0 - 0.0 - - - - - - -
23/12:00pm 20.4 SE 12 16 1018.4 - 0.0 - - - - - - -
23/11:30am 19.1 SE 12 15 1018.4 - 0.0 - - - - - - -
23/11:00am 19.7 SE 11 14 1018.9 - 0.0 - - - - - - -
23/10:30am 19.3 SE 11 13 1019.3 - 0.0 - - - - - - -
23/10:00am 18.5 SE 10 13 1019.5 - 0.0 - - - - - - -
23/09:30am 17.8 ESE 10 13 1019.4 - 0.0 - - - - - - -
23/09:00am 17.5 ESE 12 14 1019.7 - 0.0 - - - - - - -
23/08:30am 16.5 E 17 20 1019.6 - 0.0 - - - - - - -
23/08:00am 15.6 E 19 22 1019.5 - 0.0 - - - - - - -
23/07:30am 15.2 E 19 23 1019.6 - 0.0 - - - - - - -
23/07:00am 15.0 E 20 25 1019.6 - 0.0 - - - - - - -
23/06:30am 14.6 E 21 24 1019.7 - 0.0 - - - - - - -
23/06:00am 14.6 E 21 25 1019.5 - 0.0 - - - - - - -
23/05:30am 14.2 E 21 25 1019.4 - 0.0 - - - - - - -
23/05:00am 14.5 E 21 25 1019.2 - 0.0 - - - - - - -
23/04:30am 14.5 E 22 26 1019.2 - 0.0 - - - - - - -
23/04:00am 14.7 E 22 25 1019.1 - 0.0 - - - - - - -
23/03:30am 14.8 E 19 25 1019.3 - 0.0 - - - - - - -
23/03:00am 15.0 E 21 25 1019.2 - 0.0 - - - - - - -
23/02:30am 15.0 E 21 25 1019.3 - 0.0 - - - - - - -
23/02:00am 15.3 E 22 25 1019.3 - 0.0 - - - - - - -
23/01:30am 15.4 E 22 25 1019.6 - 0.0 - - - - - - -
23/01:00am 15.5 ESE 24 28 1019.7 - 0.0 - - - - - - -
23/12:30am 15.6 ESE 24 28 1020.0 - 0.0 - - - - - - -
23/12:00am 15.9 ESE 25 29 1020.3 - 0.0 - - - - - - -
 
Date/Time
WST
Temp
°C
Wind Pressure Rain since
9am
mm
Weather Cloud Vis
km
Sea
Height
m
Swell
Dir  Spd
kts
Gust
kts
hPa Trend Height
m
Period
s
Dir
22/11:30pm 16.3 ESE 24 28 1020.5 - 0.0 - - - - - - -
22/11:00pm 16.5 ESE 24 28 1020.5 - 0.0 - - - - - - -
22/10:30pm 16.6 ESE 25 30 1020.6 - 0.0 - - - - - - -
22/10:00pm 16.8 ESE 24 29 1020.9 - 0.0 - - - - - - -
22/09:30pm 16.9 ESE 25 30 1021.0 - 0.0 - - - - - - -
22/09:00pm 17.0 ESE 24 29 1020.9 - 0.0 - - - - - - -
22/08:30pm 17.1 ESE 23 28 1020.8 - 0.0 - - - - - - -
22/08:00pm 17.3 ESE 23 29 1020.7 - 0.0 - - - - - - -
22/07:30pm 17.3 SE 22 27 1020.4 - 0.0 - - - - - - -
22/07:00pm 17.4 SE 25 29 1020.3 - 0.0 - - - - - - -
22/06:30pm 17.5 SE 22 28 1020.3 - 0.0 - - - - - - -
22/06:00pm 17.9 SE 21 27 1020.2 - 0.0 - - - - - - -
22/05:30pm 18.5 SE 21 25 1019.9 - 0.0 - - - - - - -
22/05:00pm 18.8 SE 20 25 1020.0 - 0.0 - - - - - - -
22/04:30pm 19.2 SE 21 26 1020.1 - 0.0 - - - - - - -
22/04:00pm 19.6 SE 21 25 1020.2 - 0.0 - - - - - - -
22/03:30pm 20.1 SSE 19 23 1020.4 - 0.0 - - - - - - -
22/03:00pm 19.9 SSE 20 24 1020.4 - 0.0 - - - - - - -
22/02:30pm 20.3 SSE 20 23 1020.5 - 0.0 - - - - - - -
22/02:00pm 20.7 SE 18 22 1020.5 - 0.0 - - - - - - -
22/01:30pm 20.4 SE 17 22 1020.8 - 0.0 - - - - - - -
22/01:00pm 21.1 SE 14 19 1020.8 - 0.0 - - - - - - -
22/12:30pm 19.5 SE 14 19 1021.1 - 0.0 - - - - - - -
22/12:00pm 19.8 SE 14 18 1021.5 - 0.0 - - - - - - -
22/11:30am 19.3 SE 13 17 1021.9 - 0.0 - - - - - - -
22/11:00am 19.1 SE 13 16 1022.3 - 0.0 - - - - - - -
22/10:30am 18.5 SE 11 15 1022.4 - 0.0 - - - - - - -
22/10:00am 17.9 SE 10 14 1022.7 - 0.0 - - - - - - -
22/09:30am 17.8 E 13 15 1022.7 - 0.0 - - - - - - -
22/09:00am 17.1 E 14 17 1022.8 - - - - - - - - -
22/08:30am 15.9 E 17 20 1022.8 - - - - - - - - -
22/08:00am 15.6 E 18 22 1023.0 - - - - - - - - -
22/07:30am 15.3 ENE 19 23 1022.9 - - - - - - - - -
22/07:00am 15.3 ENE 19 23 1022.9 - - - - - - - - -
22/06:30am 15.1 E 19 22 1022.8 - - - - - - - - -
22/06:00am 14.5 ENE 19 23 1022.9 - - - - - - - - -
22/05:30am 14.5 ENE 16 19 1022.8 - - - - - - - - -
22/05:00am 14.7 ENE 20 23 1022.7 - - - - - - - - -
22/04:30am 14.8 E 20 25 1022.5 - - - - - - - - -
22/04:00am 14.8 E 20 23 1022.5 - - - - - - - - -
22/03:30am 14.9 E 19 22 1022.3 - - - - - - - - -
22/03:00am 15.0 E 21 25 1022.1 - 0.0 - - - - - - -
22/02:30am 15.5 E 21 26 1022.0 - - - - - - - - -
22/02:00am 15.7 E 21 27 1022.1 - - - - - - - - -
22/01:30am 15.8 E 20 24 1022.1 - - - - - - - - -
22/01:00am 16.0 ESE 21 25 1022.3 - - - - - - - - -
22/12:30am 16.1 ESE 18 22 1022.6 - - - - - - - - -
22/12:00am 16.2 ESE 18 23 1022.9 - - - - - - - - -
 
Date/Time
WST
Temp
°C
Wind Pressure Rain since
9am
mm
Weather Cloud Vis
km
Sea
Height
m
Swell
Dir  Spd
kts
Gust
kts
hPa Trend Height
m
Period
s
Dir
21/11:30pm 16.3 ESE 18 23 1022.9 - - - - - - - - -
21/11:00pm 16.4 ESE 19 24 1022.9 - - - - - - - - -
21/10:30pm 16.6 ESE 19 23 1023.0 - - - - - - - - -
21/10:00pm 16.4 SE 15 21 1023.3 - - - - - - - - -
21/09:30pm 16.5 SE 17 21 1023.3 - - - - - - - - -
21/09:00pm 16.5 SE 16 20 1023.2 - 0.0 - - - - - - -
21/08:30pm 16.4 SE 17 22 1023.0 - - - - - - - - -
21/08:00pm 16.5 SE 17 22 1022.7 - - - - - - - - -
21/07:30pm 16.4 SE 17 20 1022.8 - - - - - - - - -
21/07:00pm 16.5 SSE 16 20 1022.4 - - - - - - - - -
21/06:30pm 17.0 SSE 16 19 1022.4 - - - - - - - - -
21/06:00pm 17.4 SSE 15 19 1022.1 - - - - - - - - -
21/05:30pm 17.8 SSE 15 19 1021.8 - - - - - - - - -
21/05:00pm 18.3 SSE 13 18 1021.6 - - - - - - - - -
21/04:30pm 18.7 SSE 15 18 1021.3 - - - - - - - - -
21/04:00pm 19.2 SSE 14 17 1021.1 - - - - - - - - -
21/03:30pm 19.2 SSE 12 17 1021.3 - - - - - - - - -
21/03:00pm 19.6 SSE 11 16 1021.4 - - - - - - - - -
21/02:30pm 20.2 SSE 13 17 1021.2 - - - - - - - - -
21/02:00pm 19.7 SSE 13 17 1021.2 - - - - - - - - -
21/01:30pm 19.7 SSE 12 16 1021.5 - - - - - - - - -

Other Formats:

Comma delimited format used in spreadsheet applications
http://www.bom.gov.au/fwo/IDW60701/IDW60701.94601.axf

JavaScript Object Notation format (JSON) in row-major order
http://www.bom.gov.au/fwo/IDW60701/IDW60701.94601.json